createdAt,value
2022-12-19T00:00:51.011Z,-4.80
2022-12-19T00:03:19.374Z,-4.80
2022-12-19T00:05:48.690Z,-4.70
2022-12-19T00:08:18.252Z,-4.60
2022-12-19T00:10:59.582Z,-4.70
2022-12-19T00:13:31.158Z,-4.50
2022-12-19T00:16:05.290Z,-4.50
2022-12-19T00:18:34.090Z,-4.40
2022-12-19T00:21:09.959Z,-4.50
2022-12-19T00:23:38.453Z,-4.50
2022-12-19T00:26:14.320Z,-4.50
2022-12-19T00:28:50.401Z,-4.50
2022-12-19T00:31:25.546Z,-4.50
2022-12-19T00:33:54.180Z,-4.50
2022-12-19T00:36:24.397Z,-4.50
2022-12-19T00:38:54.889Z,-4.40
2022-12-19T00:41:27.419Z,-4.40
2022-12-19T00:43:58.610Z,-4.60
2022-12-19T00:46:29.588Z,-4.80
2022-12-19T00:48:58.507Z,-4.80
2022-12-19T00:51:28.887Z,-4.80
2022-12-19T00:53:59.536Z,-4.70
2022-12-19T00:56:37.732Z,-4.70
2022-12-19T00:59:09.386Z,-4.50
2022-12-19T01:01:40.371Z,-4.30
2022-12-19T01:04:29.448Z,-4.30
2022-12-19T01:07:02.729Z,-4.30
2022-12-19T01:09:37.131Z,-4.30
2022-12-19T01:12:26.978Z,-4.30
2022-12-19T01:15:04.027Z,-4.10
2022-12-19T01:17:38.896Z,-4.10
2022-12-19T01:20:29.457Z,-4.20
2022-12-19T01:23:05.649Z,-4.10
2022-12-19T01:25:37.412Z,-4.00
2022-12-19T01:28:12.884Z,-3.90
2022-12-19T01:30:44.466Z,-4.00
2022-12-19T01:33:15.797Z,-4.10
2022-12-19T01:35:47.080Z,-4.00
2022-12-19T01:38:16.753Z,-3.90
2022-12-19T01:40:51.740Z,-3.90
2022-12-19T01:43:24.499Z,-3.80
2022-12-19T01:45:59.301Z,-3.90
2022-12-19T01:48:35.599Z,-3.80
2022-12-19T01:51:09.759Z,-3.80
2022-12-19T01:53:48.524Z,-3.80
2022-12-19T01:56:26.003Z,-3.80
2022-12-19T01:59:06.477Z,-3.70
2022-12-19T02:01:49.560Z,-3.60
2022-12-19T02:04:24.471Z,-3.50
2022-12-19T02:07:00.390Z,-3.50
2022-12-19T02:09:46.151Z,-3.70
2022-12-19T02:12:23.118Z,-3.60
2022-12-19T02:14:54.539Z,-3.60
2022-12-19T02:17:39.978Z,-3.70
2022-12-19T02:20:31.789Z,-3.70
2022-12-19T02:23:21.201Z,-3.50
2022-12-19T02:26:02.967Z,-3.50
2022-12-19T02:28:59.200Z,-3.50
2022-12-19T02:31:33.885Z,-3.60
2022-12-19T02:34:10.702Z,-3.60
2022-12-19T02:36:49.325Z,-3.70
2022-12-19T02:39:24.658Z,-3.60
2022-12-19T02:41:59.817Z,-3.70
2022-12-19T02:44:33.247Z,-3.70
2022-12-19T02:47:07.496Z,-3.70
2022-12-19T02:49:40.003Z,-3.70
2022-12-19T02:52:13.530Z,-3.70
2022-12-19T02:54:42.296Z,-3.90
2022-12-19T02:57:25.096Z,-3.90
2022-12-19T03:00:07.486Z,-3.80
2022-12-19T03:02:55.940Z,-3.80
2022-12-19T03:05:38.445Z,-3.80
2022-12-19T03:08:11.181Z,-3.60
2022-12-19T03:10:42.115Z,-3.60
2022-12-19T03:13:18.521Z,-3.50
2022-12-19T03:15:50.419Z,-3.70
2022-12-19T03:18:22.905Z,-3.70
2022-12-19T03:20:56.118Z,-3.60
2022-12-19T03:23:24.388Z,-3.60
2022-12-19T03:25:57.002Z,-3.60
2022-12-19T03:28:31.704Z,-3.60
2022-12-19T03:31:01.629Z,-3.50
2022-12-19T03:33:36.204Z,-3.40
2022-12-19T03:36:08.984Z,-3.40
2022-12-19T03:38:40.634Z,-3.50
2022-12-19T03:41:11.954Z,-3.60
2022-12-19T03:43:42.185Z,-3.60
2022-12-19T03:46:21.005Z,-3.50
2022-12-19T03:48:52.749Z,-3.50
2022-12-19T03:51:30.689Z,-3.40
2022-12-19T03:54:03.462Z,-3.30
2022-12-19T03:56:35.884Z,-3.50
2022-12-19T03:59:12.650Z,-3.60
2022-12-19T04:01:42.823Z,-3.60
2022-12-19T04:04:14.134Z,-3.50
2022-12-19T04:06:44.968Z,-3.70
2022-12-19T04:09:19.216Z,-3.70
2022-12-19T04:11:54.777Z,-3.70
2022-12-19T04:14:31.577Z,-3.60
2022-12-19T04:17:11.021Z,-3.80
2022-12-19T04:19:49.420Z,-3.70
2022-12-19T04:22:24.232Z,-3.80
2022-12-19T04:24:55.891Z,-3.80
2022-12-19T04:27:25.012Z,-3.70
2022-12-19T04:29:57.622Z,-3.70
2022-12-19T04:32:27.152Z,-3.80
2022-12-19T04:35:00.960Z,-3.60
2022-12-19T04:37:30.158Z,-3.50
2022-12-19T04:40:01.168Z,-3.40
2022-12-19T04:42:29.493Z,-3.40
2022-12-19T04:45:00.204Z,-3.30
2022-12-19T04:47:30.429Z,-3.40
2022-12-19T04:50:03.547Z,-3.50
2022-12-19T04:52:31.839Z,-3.30
2022-12-19T04:55:00.016Z,-3.40
2022-12-19T04:57:31.490Z,-3.30
2022-12-19T04:59:59.821Z,-3.50
2022-12-19T05:02:27.943Z,-3.50
2022-12-19T05:04:56.089Z,-3.50
2022-12-19T05:07:26.563Z,-3.70
2022-12-19T05:09:54.630Z,-3.50
2022-12-19T05:12:23.748Z,-3.40
2022-12-19T05:14:52.114Z,-3.40
2022-12-19T05:17:20.258Z,-3.30
2022-12-19T05:19:48.545Z,-3.30
2022-12-19T05:22:18.166Z,-3.30
2022-12-19T05:24:48.250Z,-3.20
2022-12-19T05:27:17.171Z,-3.20
2022-12-19T05:29:45.539Z,-3.10
2022-12-19T05:32:13.549Z,-3.10
2022-12-19T05:34:41.556Z,-3.10
2022-12-19T05:37:09.799Z,-3.00
2022-12-19T05:39:37.898Z,-3.00
2022-12-19T05:42:12.380Z,-3.00
2022-12-19T05:44:40.728Z,-2.80
2022-12-19T05:47:09.005Z,-2.60
2022-12-19T05:49:39.837Z,-2.70
2022-12-19T05:52:09.252Z,-2.80
2022-12-19T05:54:37.301Z,-2.80
2022-12-19T05:57:09.684Z,-2.60
2022-12-19T05:59:39.204Z,-2.60
2022-12-19T06:02:07.480Z,-2.60
2022-12-19T06:04:36.030Z,-2.70
2022-12-19T06:07:05.481Z,-2.70
2022-12-19T06:09:33.594Z,-2.70
2022-12-19T06:12:01.856Z,-2.80
2022-12-19T06:14:31.195Z,-2.80
2022-12-19T06:16:59.471Z,-2.90
2022-12-19T06:19:27.837Z,-2.90
2022-12-19T06:21:57.497Z,-2.90
2022-12-19T06:24:28.473Z,-2.80
2022-12-19T06:26:56.557Z,-2.70
2022-12-19T06:29:24.676Z,-2.60
2022-12-19T06:31:54.753Z,-2.50
2022-12-19T06:34:55.057Z,-2.40
2022-12-19T06:37:17.532Z,-2.40
2022-12-19T06:39:46.080Z,-2.40
2022-12-19T06:42:25.176Z,-2.30
2022-12-19T06:44:55.784Z,-2.40
2022-12-19T06:47:26.406Z,-2.40
2022-12-19T06:49:54.801Z,-2.40
2022-12-19T06:52:24.465Z,-2.40
2022-12-19T06:54:54.661Z,-2.40
2022-12-19T06:57:22.679Z,-2.50
2022-12-19T06:59:51.166Z,-2.50
2022-12-19T07:02:28.359Z,-2.50
2022-12-19T07:05:02.173Z,-2.50
2022-12-19T07:07:30.790Z,-2.40
2022-12-19T07:10:00.278Z,-2.40
2022-12-19T07:12:28.384Z,-2.20
2022-12-19T07:14:58.132Z,-2.10
2022-12-19T07:17:32.583Z,-2.00
2022-12-19T07:20:00.796Z,-2.00
2022-12-19T07:22:35.913Z,-1.90
2022-12-19T07:25:05.988Z,-1.90
2022-12-19T07:27:36.262Z,-1.80
2022-12-19T07:30:07.519Z,-1.80
2022-12-19T07:32:39.121Z,-1.80
2022-12-19T07:35:08.289Z,-1.80
2022-12-19T07:37:36.439Z,-1.80
2022-12-19T07:40:05.482Z,-1.80
2022-12-19T07:42:34.125Z,-1.60
2022-12-19T07:45:02.375Z,-1.60
2022-12-19T07:47:30.877Z,-1.50
2022-12-19T07:50:01.495Z,-1.40
2022-12-19T07:52:29.767Z,-1.40
2022-12-19T07:54:59.077Z,-1.50
2022-12-19T07:57:27.352Z,-1.50
2022-12-19T07:59:55.290Z,-1.40
2022-12-19T08:02:23.585Z,-1.30
2022-12-19T08:04:54.322Z,-1.20
2022-12-19T08:07:23.962Z,-1.10
2022-12-19T08:09:52.062Z,-1.10
2022-12-19T08:12:20.061Z,-1.00
2022-12-19T08:14:50.678Z,-1.00
2022-12-19T08:17:23.381Z,-0.80
2022-12-19T08:19:51.550Z,-0.80
2022-12-19T08:22:19.523Z,-0.80
2022-12-19T08:24:48.949Z,-0.60
2022-12-19T08:27:17.829Z,-0.60
2022-12-19T08:29:45.864Z,-0.70
2022-12-19T08:32:20.238Z,-0.70
2022-12-19T08:34:49.337Z,-0.60
2022-12-19T08:37:18.194Z,-0.50
2022-12-19T08:39:48.324Z,-0.40
2022-12-19T08:42:17.847Z,-0.40
2022-12-19T08:44:45.877Z,-0.20
2022-12-19T08:47:13.959Z,-0.20
2022-12-19T08:49:42.167Z,0.00
2022-12-19T08:52:10.249Z,0.10
2022-12-19T08:54:38.541Z,0.20
2022-12-19T08:57:06.640Z,0.50
2022-12-19T08:59:36.420Z,0.70
2022-12-19T09:02:06.769Z,0.90
2022-12-19T09:05:58.654Z,1.00
2022-12-19T09:07:26.800Z,1.10
2022-12-19T09:09:54.866Z,1.20
2022-12-19T09:12:22.884Z,1.30
2022-12-19T09:14:52.289Z,1.40
2022-12-19T09:17:20.792Z,1.40
2022-12-19T09:19:48.925Z,1.50
2022-12-19T09:22:17.528Z,1.60
2022-12-19T09:24:45.539Z,1.70
2022-12-19T09:27:14.861Z,1.70
2022-12-19T09:29:43.570Z,1.70
2022-12-19T09:32:13.557Z,1.90
2022-12-19T09:34:42.042Z,2.00
2022-12-19T09:37:15.723Z,2.10
2022-12-19T09:39:45.210Z,2.00
2022-12-19T09:42:40.718Z,2.10
2022-12-19T09:45:33.739Z,2.30
2022-12-19T09:48:17.340Z,2.60
2022-12-19T09:51:09.219Z,2.70
2022-12-19T09:53:45.908Z,2.80
2022-12-19T09:56:46.538Z,2.70
2022-12-19T09:59:26.181Z,2.80
2022-12-19T10:02:25.315Z,2.90
2022-12-19T10:05:20.467Z,2.90
2022-12-19T10:08:10.408Z,2.80
2022-12-19T10:12:41.314Z,2.90
2022-12-19T10:13:51.691Z,3.00
2022-12-19T10:16:30.854Z,3.10
2022-12-19T10:19:02.643Z,3.20
2022-12-19T10:22:15.591Z,3.30
2022-12-19T10:25:09.036Z,3.40
2022-12-19T10:27:58.808Z,3.60
2022-12-19T10:30:31.734Z,3.70
2022-12-19T10:33:12.124Z,3.70
2022-12-19T10:36:02.593Z,3.70
2022-12-19T10:38:46.285Z,3.80
2022-12-19T10:41:24.315Z,3.80
2022-12-19T10:44:02.454Z,3.70
2022-12-19T10:46:38.997Z,3.80
2022-12-19T10:49:14.961Z,3.80
2022-12-19T10:51:43.817Z,3.90
2022-12-19T10:54:16.415Z,3.90
2022-12-19T10:56:45.152Z,3.90
2022-12-19T10:59:18.012Z,4.00
2022-12-19T11:01:54.215Z,4.00
2022-12-19T11:04:32.809Z,4.10
2022-12-19T11:07:20.963Z,4.20
2022-12-19T11:10:02.998Z,4.10
2022-12-19T11:17:06.134Z,4.20
2022-12-19T11:19:23.003Z,4.20
2022-12-19T11:25:57.794Z,3.90
2022-12-19T11:29:33.695Z,3.90
2022-12-19T11:29:38.651Z,3.70
2022-12-19T11:30:39.349Z,3.60
2022-12-19T11:32:41.873Z,4.00
2022-12-19T11:35:19.827Z,4.00
2022-12-19T11:37:55.877Z,4.10
2022-12-19T11:40:36.073Z,4.10
2022-12-19T11:46:09.237Z,4.20
2022-12-19T11:48:43.487Z,4.30
2022-12-19T11:51:20.667Z,4.40
2022-12-19T11:54:00.423Z,4.40
2022-12-19T11:56:30.461Z,4.50
2022-12-19T11:59:03.827Z,4.50
2022-12-19T12:01:47.561Z,4.40
2022-12-19T12:04:38.687Z,4.20
2022-12-19T12:07:17.984Z,4.10
2022-12-19T12:13:39.399Z,4.20
2022-12-19T12:21:14.275Z,4.30
2022-12-19T12:30:59.307Z,4.30
2022-12-19T12:31:05.201Z,4.40
2022-12-19T12:31:23.833Z,4.50
2022-12-19T12:31:40.922Z,4.60
2022-12-19T12:31:57.408Z,4.50
2022-12-19T12:35:38.323Z,4.60
2022-12-19T12:38:10.826Z,4.70
2022-12-19T12:40:24.013Z,4.70
2022-12-19T12:43:01.316Z,4.70
2022-12-19T12:45:36.212Z,4.80
2022-12-19T12:48:27.695Z,4.80
2022-12-19T12:50:58.933Z,4.80
2022-12-19T12:53:32.781Z,4.90
2022-12-19T12:56:03.160Z,4.90
2022-12-19T12:59:06.790Z,4.90
2022-12-19T13:01:37.534Z,4.80
2022-12-19T13:04:23.117Z,4.90
2022-12-19T13:07:30.348Z,5.10
2022-12-19T13:10:18.741Z,5.00
2022-12-19T13:13:02.250Z,4.80
2022-12-19T13:15:44.912Z,4.50
2022-12-19T13:18:31.792Z,4.40
2022-12-19T13:21:04.056Z,4.40
2022-12-19T13:23:56.572Z,4.40
2022-12-19T13:27:00.283Z,4.50
2022-12-19T13:29:54.870Z,4.60
2022-12-19T13:32:24.898Z,4.80
2022-12-19T13:35:14.617Z,4.80
2022-12-19T13:39:57.113Z,4.80
2022-12-19T13:40:51.585Z,4.80
2022-12-19T13:43:39.807Z,4.80
2022-12-19T13:46:33.607Z,4.80
2022-12-19T13:49:09.137Z,4.70
2022-12-19T13:51:47.648Z,4.70
2022-12-19T13:54:26.376Z,4.60
2022-12-19T13:56:56.005Z,4.70
2022-12-19T13:59:28.879Z,4.80
2022-12-19T14:01:57.394Z,4.70
2022-12-19T14:04:31.045Z,4.50
2022-12-19T14:07:02.413Z,4.30
2022-12-19T14:11:28.855Z,4.20
2022-12-19T14:13:56.789Z,4.20
2022-12-19T14:15:35.387Z,4.20
2022-12-19T14:18:42.407Z,4.30
2022-12-19T14:22:08.801Z,4.30
2022-12-19T14:24:15.913Z,4.30
2022-12-19T14:28:23.323Z,4.30
2022-12-19T14:30:28.572Z,4.20
2022-12-19T14:33:46.476Z,4.20
2022-12-19T14:36:07.057Z,4.10
2022-12-19T14:39:26.872Z,4.10
2022-12-19T14:41:27.170Z,4.00
2022-12-19T14:52:51.981Z,4.00
2022-12-19T14:54:03.917Z,4.00
2022-12-19T14:54:04.971Z,4.00
2022-12-19T14:54:40.195Z,4.00
2022-12-19T14:56:13.488Z,4.00
2022-12-19T14:58:55.242Z,3.80
2022-12-19T15:01:26.198Z,3.70
2022-12-19T15:04:52.103Z,3.60
2022-12-19T15:07:08.176Z,3.50
2022-12-19T15:11:00.517Z,3.40
2022-12-19T15:14:49.065Z,3.40
2022-12-19T15:15:59.085Z,3.40
2022-12-19T15:18:46.206Z,3.40
2022-12-19T15:21:15.581Z,3.30
2022-12-19T15:23:45.942Z,3.30
2022-12-19T15:26:16.941Z,3.30
2022-12-19T15:28:49.548Z,3.20
2022-12-19T15:31:29.868Z,3.00
2022-12-19T15:34:35.064Z,3.00
2022-12-19T15:36:52.431Z,3.00
2022-12-19T15:39:22.309Z,2.90
2022-12-19T15:42:00.655Z,2.90
2022-12-19T15:44:34.202Z,2.90
2022-12-19T15:47:06.345Z,2.90
2022-12-19T15:49:38.182Z,2.90
2022-12-19T15:52:13.858Z,2.90
2022-12-19T15:54:50.663Z,2.60
2022-12-19T15:57:29.162Z,2.50
2022-12-19T16:00:00.368Z,2.50
2022-12-19T16:02:56.406Z,2.50
2022-12-19T16:05:21.976Z,2.60
2022-12-19T16:07:50.225Z,2.50
2022-12-19T16:10:19.881Z,2.50
2022-12-19T16:12:52.280Z,2.50
2022-12-19T16:15:27.554Z,2.40
2022-12-19T16:17:56.860Z,2.40
2022-12-19T16:20:28.181Z,2.40
2022-12-19T16:23:06.611Z,2.40
2022-12-19T16:25:38.077Z,2.30
2022-12-19T16:28:08.205Z,2.40
2022-12-19T16:30:38.027Z,2.30
2022-12-19T16:33:19.055Z,2.20
2022-12-19T16:36:06.596Z,2.30
2022-12-19T16:38:36.819Z,2.30
2022-12-19T16:41:06.149Z,2.30
2022-12-19T16:43:38.422Z,2.30
2022-12-19T16:46:08.928Z,2.20
2022-12-19T16:48:39.086Z,2.20
2022-12-19T16:51:18.460Z,2.20
2022-12-19T16:53:49.413Z,2.10
2022-12-19T16:56:28.342Z,2.20
2022-12-19T16:58:57.583Z,2.20
2022-12-19T17:01:26.198Z,2.20
2022-12-19T17:03:57.917Z,2.00
2022-12-19T17:06:28.103Z,1.70
2022-12-19T17:08:56.419Z,1.70
2022-12-19T17:11:26.970Z,1.80
2022-12-19T17:14:00.626Z,1.70
2022-12-19T17:16:33.483Z,1.60
2022-12-19T17:19:02.722Z,1.60
2022-12-19T17:21:34.087Z,1.50
2022-12-19T17:24:02.205Z,1.50
2022-12-19T17:26:30.320Z,1.50
2022-12-19T17:29:00.809Z,1.60
2022-12-19T17:31:37.844Z,1.60
2022-12-19T17:34:08.241Z,1.40
2022-12-19T17:36:38.283Z,1.40
2022-12-19T17:39:18.723Z,1.30
2022-12-19T17:41:47.324Z,1.40
2022-12-19T17:44:15.398Z,1.40
2022-12-19T17:46:47.901Z,1.40
2022-12-19T17:49:18.704Z,1.60
2022-12-19T17:51:53.622Z,1.50
2022-12-19T17:54:22.212Z,1.30
2022-12-19T17:56:50.250Z,1.30
2022-12-19T17:59:18.731Z,1.30
2022-12-19T18:01:47.534Z,1.30
2022-12-19T18:04:21.039Z,1.30
2022-12-19T18:06:50.705Z,1.30
2022-12-19T18:09:20.278Z,1.30
2022-12-19T18:11:49.230Z,1.20
2022-12-19T18:14:18.175Z,1.20
2022-12-19T18:16:47.205Z,1.20
2022-12-19T18:19:19.594Z,1.20
2022-12-19T18:21:54.878Z,1.20
2022-12-19T18:24:23.017Z,1.20
2022-12-19T18:26:51.180Z,1.30
2022-12-19T18:29:20.193Z,1.40
2022-12-19T18:31:51.104Z,1.40
2022-12-19T18:34:22.049Z,1.40
2022-12-19T18:36:52.287Z,1.40
2022-12-19T18:39:23.247Z,1.40
2022-12-19T18:41:53.008Z,1.50
2022-12-19T18:44:22.566Z,1.50
2022-12-19T18:46:53.711Z,1.60
2022-12-19T18:49:23.075Z,1.60
2022-12-19T18:51:52.939Z,1.60
2022-12-19T18:54:25.471Z,1.70
2022-12-19T18:56:53.493Z,1.80
2022-12-19T18:59:25.500Z,1.90
2022-12-19T19:01:55.591Z,1.90
2022-12-19T19:04:23.788Z,1.90
2022-12-19T19:07:00.307Z,2.00
2022-12-19T19:09:29.882Z,2.20
2022-12-19T19:12:23.936Z,2.20
2022-12-19T19:14:53.213Z,2.20
2022-12-19T19:17:32.792Z,2.20
2022-12-19T19:20:01.574Z,2.30
2022-12-19T19:22:34.933Z,2.30
2022-12-19T19:25:02.804Z,2.20
2022-12-19T19:27:30.994Z,2.20
2022-12-19T19:29:59.984Z,2.20
2022-12-19T19:32:28.374Z,2.10
2022-12-19T19:34:56.859Z,2.10
2022-12-19T19:37:26.003Z,2.20
2022-12-19T19:39:56.495Z,2.30
2022-12-19T19:42:24.664Z,2.30
2022-12-19T19:44:52.701Z,2.30
2022-12-19T19:47:26.559Z,2.40
2022-12-19T19:50:01.225Z,2.30
2022-12-19T19:52:29.898Z,2.30
2022-12-19T19:54:59.541Z,2.20
2022-12-19T19:57:27.591Z,2.20
2022-12-19T19:59:55.669Z,2.10
2022-12-19T20:02:24.247Z,2.10
2022-12-19T20:04:52.411Z,2.10
2022-12-19T20:07:20.899Z,2.00
2022-12-19T20:09:49.091Z,2.00
2022-12-19T20:12:18.474Z,2.00
2022-12-19T20:14:47.976Z,2.00
2022-12-19T20:17:15.999Z,2.00
2022-12-19T20:19:44.041Z,2.00
2022-12-19T20:22:12.732Z,2.10
2022-12-19T20:24:40.912Z,2.00
2022-12-19T20:27:11.700Z,1.90
2022-12-19T20:29:44.636Z,1.90
2022-12-19T20:32:14.673Z,1.90
2022-12-19T20:34:53.213Z,1.90
2022-12-19T20:37:21.244Z,1.80
2022-12-19T20:39:52.514Z,1.90
2022-12-19T20:42:21.021Z,1.80
2022-12-19T20:44:51.049Z,1.80
2022-12-19T20:47:19.321Z,1.70
2022-12-19T20:49:47.631Z,1.70
2022-12-19T20:52:22.840Z,1.60
2022-12-19T20:54:50.903Z,1.70
2022-12-19T20:57:19.372Z,1.60
2022-12-19T20:59:47.819Z,1.70
2022-12-19T21:02:19.319Z,1.70
2022-12-19T21:04:49.210Z,1.60
2022-12-19T21:07:17.827Z,1.50
2022-12-19T21:09:45.899Z,1.30
2022-12-19T21:12:13.920Z,1.40
2022-12-19T21:14:44.028Z,1.50
2022-12-19T21:17:12.957Z,1.50
2022-12-19T21:19:42.525Z,1.50
2022-12-19T21:22:10.925Z,1.50
2022-12-19T21:24:39.702Z,1.50
2022-12-19T21:27:07.879Z,1.60
2022-12-19T21:29:36.122Z,1.60
2022-12-19T21:32:06.869Z,1.70
2022-12-19T21:34:34.929Z,1.80
2022-12-19T21:37:04.600Z,1.70
2022-12-19T21:39:34.823Z,1.70
2022-12-19T21:42:03.195Z,1.70
2022-12-19T21:44:31.690Z,1.70
2022-12-19T21:47:00.626Z,1.80
2022-12-19T21:49:31.221Z,1.80
2022-12-19T21:51:59.487Z,1.90
2022-12-19T21:54:31.251Z,1.90
2022-12-19T21:56:59.289Z,1.90
2022-12-19T21:59:27.454Z,1.80
2022-12-19T22:01:56.766Z,1.80
2022-12-19T22:04:32.780Z,1.90
2022-12-19T22:07:00.877Z,1.90
2022-12-19T22:09:36.643Z,1.80
2022-12-19T22:12:05.159Z,1.80
2022-12-19T22:14:36.812Z,1.80
2022-12-19T22:17:06.679Z,1.80
2022-12-19T22:19:36.320Z,1.80
2022-12-19T22:22:05.947Z,1.80
2022-12-19T22:24:36.910Z,1.80
2022-12-19T22:27:05.297Z,1.80
2022-12-19T22:29:36.440Z,1.70
2022-12-19T22:32:06.389Z,1.80
2022-12-19T22:34:35.816Z,1.80
2022-12-19T22:37:03.999Z,1.70
2022-12-19T22:39:33.139Z,1.70
2022-12-19T22:42:04.106Z,1.60
2022-12-19T22:44:32.180Z,1.60
2022-12-19T22:47:00.241Z,1.60
2022-12-19T22:49:28.289Z,1.70
2022-12-19T22:52:00.278Z,1.70
2022-12-19T22:54:28.405Z,1.80
2022-12-19T22:56:56.866Z,1.60
2022-12-19T22:59:27.116Z,1.60
2022-12-19T23:01:57.943Z,1.60
2022-12-19T23:04:29.297Z,1.70
2022-12-19T23:06:57.399Z,1.70
2022-12-19T23:09:28.647Z,1.80
2022-12-19T23:12:00.261Z,1.90
2022-12-19T23:14:30.240Z,1.90
2022-12-19T23:17:00.542Z,1.80
2022-12-19T23:19:31.662Z,1.80
2022-12-19T23:22:03.517Z,1.80
2022-12-19T23:24:41.019Z,1.80
2022-12-19T23:27:09.963Z,1.70
2022-12-19T23:29:39.507Z,1.60
2022-12-19T23:32:11.816Z,1.60
2022-12-19T23:34:41.355Z,1.70
2022-12-19T23:37:11.995Z,1.70
2022-12-19T23:39:41.482Z,1.80
2022-12-19T23:42:11.029Z,1.80
2022-12-19T23:44:42.966Z,1.90
2022-12-19T23:47:11.255Z,1.80
2022-12-19T23:49:41.292Z,1.80
2022-12-19T23:52:09.608Z,1.80
2022-12-19T23:54:37.981Z,1.80
2022-12-19T23:57:05.974Z,1.90
2022-12-19T23:59:34.057Z,1.90
